Time;durP1;ratioP1;P1;durP2;ratioP2;P2;SDS_P1;SDS_P2;PMS_P1;PMS_P2;Temp;Humidity;BMP_temperature;BMP_pressure;BME280_temperature;BME280_humidity;BME280_pressure;Samples;Min_cycle;Max_cycle;Signal;HPM_P1;HPM_P2
2021/08/23 05:01:12;;;;;;;7.50;5.15;;;;;;;23.62;54.17;95021.94;5733844;23;20520;-83
2021/08/23 05:03:38;;;;;;;6.15;4.60;;;;;;;25.10;50.76;95017.47;4988684;28;20061;-81
2021/08/23 05:06:03;;;;;;;5.22;4.63;;;;;;;24.73;50.89;95019.38;4961728;28;20263;-80
2021/08/23 05:08:29;;;;;;;4.88;4.45;;;;;;;25.30;51.24;95022.81;4975639;28;20038;-83
2021/08/23 05:10:54;;;;;;;5.30;4.75;;;;;;;26.32;48.54;95014.00;4934398;28;20038;-83
2021/08/23 05:13:19;;;;;;;4.85;4.45;;;;;;;26.52;47.31;95013.97;4962276;28;20026;-82
2021/08/23 05:15:45;;;;;;;5.30;4.47;;;;;;;27.10;45.94;95017.06;4971226;28;20399;-82
2021/08/23 05:18:10;;;;;;;5.65;4.78;;;;;;;26.58;46.64;95018.22;4988748;28;20034;-83
2021/08/23 05:20:36;;;;;;;5.03;4.53;;;;;;;26.99;46.57;95007.50;4988481;28;20034;-81
2021/08/23 05:23:01;;;;;;;4.80;4.30;;;;;;;27.33;45.52;95000.44;4971710;28;20030;-82
2021/08/23 05:25:27;;;;;;;4.82;4.38;;;;;;;27.15;46.17;95012.50;4970322;28;20041;-82
2021/08/23 05:27:52;;;;;;;4.97;4.53;;;;;;;28.23;43.97;95014.28;4989126;28;20430;-81
2021/08/23 05:30:18;;;;;;;4.25;3.95;;;;;;;28.61;43.19;95010.72;4993479;28;20041;-81
2021/08/23 05:32:43;;;;;;;5.10;4.70;;;;;;;27.11;46.76;95000.00;4965365;28;20073;-82
2021/08/23 05:35:09;;;;;;;4.93;4.43;;;;;;;28.15;43.64;95009.56;4965105;28;20496;-81
2021/08/23 05:37:35;;;;;;;4.43;4.10;;;;;;;28.64;42.97;95006.72;4967794;28;20034;-79
2021/08/23 05:40:00;;;;;;;5.65;4.45;;;;;;;25.93;48.64;95012.91;4968638;28;20029;-80
2021/08/23 05:42:26;;;;;;;4.75;4.35;;;;;;;27.78;45.28;94996.75;4956390;28;20030;-82
2021/08/23 05:44:54;;;;;;;5.65;4.68;;;;;;;30.10;41.23;95004.09;4968076;28;20239;-81
2021/08/23 05:47:20;;;;;;;;;;;;;;;31.15;38.91;95001.44;4953227;28;20030;-81
2021/08/23 05:49:45;;;;;;;4.40;4.00;;;;;;;30.07;40.80;94996.66;4977787;28;19921;-80
2021/08/23 05:52:11;;;;;;;4.63;4.22;;;;;;;29.75;39.82;94987.50;4968551;28;20041;-81
2021/08/23 05:54:37;;;;;;;4.93;4.55;;;;;;;28.43;43.55;94994.66;4986782;28;20041;-81
2021/08/23 05:57:03;;;;;;;4.82;4.15;;;;;;;30.33;39.84;94987.16;4957517;28;20039;-81
2021/08/23 05:59:29;;;;;;;4.85;4.45;;;;;;;29.76;41.00;94991.75;4954039;28;20027;-81
2021/08/23 06:01:54;;;;;;;6.93;4.40;;;;;;;29.59;40.45;94994.16;4969383;28;20039;-83
2021/08/23 06:04:21;;;;;;;4.95;4.57;;;;;;;25.97;49.33;94992.75;4940075;28;20117;-81
2021/08/23 06:06:47;;;;;;;8.05;4.40;;;;;;;26.84;48.18;94996.94;4971467;28;20077;-77
2021/08/23 06:09:12;;;;;;;6.50;4.45;;;;;;;28.12;45.78;94996.81;4966633;28;20077;-76
2021/08/23 06:11:38;;;;;;;3.92;3.63;;;;;;;28.39;44.57;94996.28;4957319;28;20034;-77
2021/08/23 06:14:03;;;;;;;4.20;3.80;;;;;;;27.79;45.64;94993.00;4978672;28;20038;-77
2021/08/23 06:16:29;;;;;;;4.80;4.38;;;;;;;27.77;45.21;95003.16;4974948;28;20030;-76
2021/08/23 06:18:54;;;;;;;3.90;3.60;;;;;;;30.93;39.40;94995.19;4970930;28;20075;-77
2021/08/23 06:21:20;;;;;;;4.00;3.80;;;;;;;33.98;33.96;94991.59;4953974;28;20523;-77
2021/08/23 06:23:45;;;;;;;3.88;3.58;;;;;;;34.62;32.90;94989.81;4971283;28;20041;-77
2021/08/23 06:26:10;;;;;;;3.95;3.60;;;;;;;34.14;33.59;94990.03;4971426;28;20092;-76
2021/08/23 06:28:36;;;;;;;4.25;3.95;;;;;;;33.72;33.56;94993.50;4970661;28;20140;-76
2021/08/23 06:31:01;;;;;;;4.70;4.30;;;;;;;33.68;33.95;94990.63;4971437;28;20066;-76
2021/08/23 06:33:27;;;;;;;4.75;4.35;;;;;;;33.02;34.50;94991.72;4967826;28;20031;-76
2021/08/23 06:35:52;;;;;;;4.85;4.35;;;;;;;30.23;39.35;94990.00;4951020;28;20030;-76
2021/08/23 06:38:18;;;;;;;5.95;4.10;;;;;;;29.05;42.13;94993.75;4967528;28;20031;-76
2021/08/23 06:40:43;;;;;;;4.70;4.20;;;;;;;28.86;42.15;94988.38;4951800;28;20109;-76
2021/08/23 06:43:09;;;;;;;7.93;4.13;;;;;;;27.79;43.56;94987.69;4966003;28;20039;-76
2021/08/23 06:45:34;;;;;;;4.50;4.10;;;;;;;28.27;44.05;94992.13;4968170;28;20408;-76
2021/08/23 06:48:00;;;;;;;4.30;3.95;;;;;;;28.61;42.48;94991.25;4968535;28;20034;-76
2021/08/23 06:50:25;;;;;;;4.63;4.20;;;;;;;28.13;43.51;94998.38;4981817;28;20027;-75
2021/08/23 06:52:51;;;;;;;6.05;3.88;;;;;;;27.42;44.19;94990.03;4959499;28;20052;-74
2021/08/23 06:55:16;;;;;;;4.82;3.80;;;;;;;27.13;45.28;94997.88;4979143;28;20042;-75
2021/08/23 06:57:42;;;;;;;5.95;3.83;;;;;;;27.41;44.24;94989.22;4987901;28;20034;-75
2021/08/23 07:00:08;;;;;;;19.88;17.80;;;;;;;29.07;41.99;94988.91;4983660;28;20041;-75
2021/08/23 07:02:33;;;;;;;5.10;3.50;;;;;;;28.17;43.48;94996.75;4970734;28;20483;-75
2021/08/23 07:04:59;;;;;;;3.95;3.65;;;;;;;28.90;41.79;94988.59;4960844;28;20070;-74
2021/08/23 07:07:24;;;;;;;16.30;14.73;;;;;;;29.58;41.24;94987.22;4969471;28;20038;-75
2021/08/23 07:09:50;;;;;;;4.68;4.35;;;;;;;29.64;40.22;94978.03;4969456;28;20063;-75
2021/08/23 07:12:15;;;;;;;11.52;10.23;;;;;;;29.68;40.81;94987.06;4977748;28;20496;-75
2021/08/23 07:14:41;;;;;;;78.53;62.88;;;;;;;29.31;40.25;94980.94;4986427;28;20034;-75
2021/08/23 07:17:06;;;;;;;16.48;15.02;;;;;;;29.48;39.91;94976.66;4990514;28;20022;-75
2021/08/23 07:19:32;;;;;;;6.32;5.80;;;;;;;29.48;40.15;94974.00;4974503;28;20038;-75
2021/08/23 07:21:58;;;;;;;70.53;62.97;;;;;;;28.09;42.65;94965.38;4985315;28;20118;-75
2021/08/23 07:24:23;;;;;;;108.82;98.10;;;;;;;29.61;40.26;94957.25;4971058;28;20026;-75
2021/08/23 07:26:49;;;;;;;4.10;3.70;;;;;;;29.13;40.62;94959.22;4969998;28;20027;-75
2021/08/23 07:29:14;;;;;;;4.22;3.60;;;;;;;29.17;39.95;94954.91;4955178;28;20026;-74
2021/08/23 07:31:41;;;;;;;11.40;10.27;;;;;;;28.50;40.96;94955.13;4951758;28;20678;-75
2021/08/23 07:34:06;;;;;;;3.92;3.60;;;;;;;27.73;42.11;94948.84;4972051;28;20575;-74
2021/08/23 07:36:32;;;;;;;7.43;6.25;;;;;;;28.28;42.63;94955.63;4954624;28;20039;-75
2021/08/23 07:38:57;;;;;;;4.07;3.78;;;;;;;29.39;39.44;94949.03;4971433;28;20034;-75
2021/08/23 07:41:22;;;;;;;4.18;3.88;;;;;;;29.15;40.37;94945.59;4971212;28;20030;-74
2021/08/23 07:43:48;;;;;;;3.65;3.13;;;;;;;29.33;39.98;94944.84;4969322;28;20038;-74
2021/08/23 07:46:13;;;;;;;3.75;3.45;;;;;;;27.29;42.96;94951.53;4970568;28;20027;-74
2021/08/23 07:48:39;;;;;;;4.32;4.03;;;;;;;28.31;41.68;94944.41;4952935;28;20066;-75
2021/08/23 07:51:04;;;;;;;4.13;3.78;;;;;;;29.26;38.85;94939.06;4970667;28;20034;-75
2021/08/23 07:53:30;;;;;;;5.20;4.07;;;;;;;28.87;39.30;94939.25;4953278;28;20034;-73
2021/08/23 07:55:55;;;;;;;3.67;3.47;;;;;;;29.00;39.03;94943.91;4954034;28;20031;-74
2021/08/23 07:58:21;;;;;;;4.43;3.97;;;;;;;29.51;38.60;94940.59;4970107;28;20053;-75
2021/08/23 08:00:46;;;;;;;3.63;3.33;;;;;;;28.31;40.66;94944.41;4972019;28;20549;-76
2021/08/23 08:03:13;;;;;;;3.40;3.20;;;;;;;28.34;40.88;94943.84;4975737;28;20690;-75
2021/08/23 08:05:38;;;;;;;4.30;3.90;;;;;;;28.45;39.92;94945.31;4975623;28;20485;-77
2021/08/23 08:08:07;;;;;;;4.68;4.38;;;;;;;28.62;39.60;94934.19;4969618;28;20031;-76
2021/08/23 08:10:34;;;;;;;3.80;3.50;;;;;;;29.47;38.61;94940.38;4981040;28;20566;-76
2021/08/23 08:12:59;;;;;;;3.95;3.38;;;;;;;29.74;37.99;94932.47;4970643;28;20049;-76
2021/08/23 08:15:25;;;;;;;4.32;3.92;;;;;;;29.49;39.06;94932.06;4962258;28;20023;-76
2021/08/23 08:17:50;;;;;;;3.83;3.53;;;;;;;30.29;38.20;94935.34;4953619;28;20027;-77
2021/08/23 08:20:16;;;;;;;3.55;3.35;;;;;;;29.29;38.16;94928.59;4971485;28;20089;-76
2021/08/23 08:22:43;;;;;;;4.07;3.70;;;;;;;30.48;37.25;94920.03;4968844;28;20405;-76
2021/08/23 08:25:09;;;;;;;4.85;3.58;;;;;;;30.16;36.13;94930.75;4953551;28;20031;-76
2021/08/23 08:27:34;;;;;;;5.82;3.63;;;;;;;29.43;38.72;94926.03;4968704;28;20605;-76
2021/08/23 08:30:00;;;;;;;3.55;3.30;;;;;;;29.97;37.78;94922.00;4954039;28;20045;-76
2021/08/23 08:32:25;;;;;;;3.97;3.72;;;;;;;29.23;38.16;94915.59;4968835;28;20034;-75
2021/08/23 08:34:51;;;;;;;4.75;3.67;;;;;;;29.67;37.52;94923.25;4969428;28;20027;-75
2021/08/23 08:37:16;;;;;;;4.60;3.25;;;;;;;28.96;37.25;94915.44;4969598;28;20030;-75
2021/08/23 08:39:42;;;;;;;4.00;3.70;;;;;;;29.92;36.47;94906.84;4969961;28;20030;-76
2021/08/23 08:42:07;;;;;;;4.35;3.53;;;;;;;29.73;37.39;94917.53;4967780;28;20065;-75
2021/08/23 08:44:34;;;;;;;6.95;3.40;;;;;;;29.69;36.91;94908.53;4967757;28;20038;-75
2021/08/23 08:46:59;;;;;;;3.75;3.17;;;;;;;30.53;36.74;94911.94;4969666;28;20019;-75
2021/08/23 08:49:25;;;;;;;5.30;4.00;;;;;;;30.32;35.75;94914.16;4953150;28;20085;-76
2021/08/23 08:51:51;;;;;;;3.67;3.40;;;;;;;29.59;35.93;94907.88;4960390;28;20109;-76
2021/08/23 08:54:16;;;;;;;5.47;4.20;;;;;;;28.01;38.43;94913.47;4954013;28;20042;-79
2021/08/23 08:56:41;;;;;;;4.13;3.83;;;;;;;28.18;38.96;94916.53;4973330;28;20029;-75
2021/08/23 08:59:07;;;;;;;3.67;3.38;;;;;;;29.03;37.90;94913.19;4972468;28;20037;-75
2021/08/23 09:01:33;;;;;;;3.88;3.58;;;;;;;29.42;36.60;94903.06;4987094;28;20393;-75
2021/08/23 09:04:02;;;;;;;3.90;3.55;;;;;;;29.07;37.21;94903.53;4988755;28;20046;-75
2021/08/23 09:06:36;;;;;;;4.47;3.28;;;;;;;29.78;36.25;94900.63;4971035;28;20057;-76
2021/08/23 09:09:07;;;;;;;3.88;3.53;;;;;;;29.61;36.38;94905.72;4988521;28;20022;-75
2021/08/23 09:11:32;;;;;;;6.07;3.55;;;;;;;29.06;35.78;94902.72;4976812;28;20027;-74
2021/08/23 09:14:06;;;;;;;3.83;3.42;;;;;;;30.20;35.64;94897.00;4970431;28;20436;-76
2021/08/23 09:16:34;;;;;;;3.83;3.53;;;;;;;30.43;35.07;94901.44;4973936;28;20043;-75
2021/08/23 09:18:59;;;;;;;4.28;3.85;;;;;;;28.68;36.57;94895.75;4971588;28;20118;-75
2021/08/23 09:21:32;;;;;;;4.20;3.80;;;;;;;29.39;36.12;94898.31;4973351;28;20053;-74
2021/08/23 09:23:58;;;;;;;3.88;3.58;;;;;;;30.18;34.77;94896.53;4976574;28;20038;-76
2021/08/23 09:26:29;;;;;;;3.70;3.40;;;;;;;29.16;33.52;94891.91;4958690;28;20026;-75
2021/08/23 09:29:03;;;;;;;4.13;3.58;;;;;;;30.39;34.04;94888.91;4956455;28;20476;-75
2021/08/23 09:31:30;;;;;;;3.72;3.53;;;;;;;28.99;35.12;94894.31;4970982;28;20031;-75
2021/08/23 09:34:00;;;;;;;3.30;3.10;;;;;;;29.43;32.00;94885.16;4973770;28;20041;-77
2021/08/23 09:36:25;;;;;;;3.30;3.10;;;;;;;29.54;30.73;94873.25;4970222;28;20249;-78
2021/08/23 09:39:15;;;;;;;3.42;3.22;;;;;;;29.74;32.02;94889.75;4961686;28;20034;-75
2021/08/23 09:41:41;;;;;;;3.70;3.28;;;;;;;29.55;33.30;94872.16;4991535;28;20034;-75
2021/08/23 09:44:07;;;;;;;3.28;3.08;;;;;;;30.44;32.82;94883.50;4982718;28;20022;-76
2021/08/23 09:46:34;;;;;;;3.70;3.40;;;;;;;29.32;33.18;94873.84;4961877;28;20465;-75
2021/08/23 09:49:07;;;;;;;3.85;3.55;;;;;;;28.80;34.02;94880.16;4972783;28;20057;-76
2021/08/23 09:51:36;;;;;;;4.45;3.35;;;;;;;28.75;33.39;94880.19;4986937;28;20018;-76
2021/08/23 09:54:09;;;;;;;3.25;3.05;;;;;;;29.05;32.71;94873.69;4984826;28;20049;-79
2021/08/23 09:56:46;;;;;;;5.47;3.53;;;;;;;29.23;33.10;94871.00;4987822;28;20037;-74
2021/08/23 09:59:19;;;;;;;3.63;3.33;;;;;;;29.64;32.30;94876.53;4972184;28;20034;-73
2021/08/23 10:01:45;;;;;;;4.00;3.60;;;;;;;28.32;33.44;94860.69;4986705;28;20038;-75
2021/08/23 10:04:11;;;;;;;3.78;3.47;;;;;;;29.25;33.65;94857.41;4971752;28;20018;-74
2021/08/23 10:06:38;;;;;;;3.95;3.65;;;;;;;29.57;32.35;94853.97;4950789;28;20030;-75
2021/08/23 10:09:03;;;;;;;5.43;3.60;;;;;;;29.71;32.43;94852.13;4969083;28;20081;-74
2021/08/23 10:11:31;;;;;;;4.03;3.60;;;;;;;29.47;31.95;94846.94;4950492;28;20035;-74
2021/08/23 10:13:58;;;;;;;3.72;3.42;;;;;;;30.07;32.58;94847.78;4968051;28;20035;-75
2021/08/23 10:16:25;;;;;;;4.20;3.90;;;;;;;29.47;31.63;94854.13;4967648;28;20129;-75
2021/08/23 10:18:52;;;;;;;6.47;3.45;;;;;;;29.54;31.66;94857.25;4968201;28;20795;-75
2021/08/23 10:21:18;;;;;;;3.58;3.28;;;;;;;30.27;31.63;94857.31;4970701;28;20038;-76
2021/08/23 10:23:43;;;;;;;4.00;3.60;;;;;;;30.17;31.23;94852.16;4985378;28;20487;-75
2021/08/23 10:26:09;;;;;;;3.67;3.38;;;;;;;29.91;32.59;94841.13;4975250;28;20026;-74
2021/08/23 10:28:36;;;;;;;5.10;3.53;;;;;;;29.36;33.57;94848.16;4967958;28;20031;-75
2021/08/23 10:31:08;;;;;;;3.75;3.45;;;;;;;29.24;32.71;94845.13;4987614;28;20084;-75
2021/08/23 10:33:38;;;;;;;3.70;3.40;;;;;;;30.14;30.67;94839.38;4986069;28;20022;-73
2021/08/23 10:36:05;;;;;;;3.70;3.40;;;;;;;30.41;31.05;94847.44;4987433;28;20026;-74
2021/08/23 10:38:30;;;;;;;4.32;3.92;;;;;;;29.08;32.36;94846.41;4985275;28;20034;-70
2021/08/23 10:41:14;;;;;;;4.03;3.72;;;;;;;29.91;32.05;94843.81;4967875;28;20027;-74
2021/08/23 10:43:53;;;;;;;3.58;3.28;;;;;;;29.88;30.59;94839.06;4974607;28;20470;-74
2021/08/23 10:46:38;;;;;;;4.57;4.03;;;;;;;28.56;32.49;94828.69;4964284;28;20050;-75
2021/08/23 10:49:13;;;;;;;3.72;3.42;;;;;;;30.31;31.26;94829.69;4971604;28;20109;-74
2021/08/23 10:51:39;;;;;;;3.70;3.40;;;;;;;30.25;29.98;94827.41;4972225;28;20057;-74
2021/08/23 10:54:34;;;;;;;3.50;3.30;;;;;;;30.10;29.89;94830.38;4970555;28;20026;-73
2021/08/23 10:57:00;;;;;;;3.65;3.22;;;;;;;30.19;30.47;94832.06;4977027;28;20521;-76
2021/08/23 10:59:30;;;;;;;4.18;3.78;;;;;;;30.99;29.16;94822.72;4978477;28;20030;-73
2021/08/23 11:01:57;;;;;;;3.47;3.15;;;;;;;30.44;29.15;94813.97;4972349;28;20068;-74
2021/08/23 11:04:33;;;;;;;3.88;3.47;;;;;;;30.33;29.50;94810.69;4983195;28;20514;-74
2021/08/23 11:07:00;;;;;;;3.42;3.22;;;;;;;29.19;29.24;94811.28;4967254;28;20475;-74
2021/08/23 11:09:42;;;;;;;3.28;3.08;;;;;;;29.61;29.93;94791.66;4965327;28;20035;-74
2021/08/23 11:12:12;;;;;;;4.05;3.65;;;;;;;29.67;29.08;94805.72;4974311;28;20026;-70
2021/08/23 11:14:53;;;;;;;3.65;3.28;;;;;;;29.67;28.99;94789.69;4991489;28;20539;-71
2021/08/23 11:17:46;;;;;;;3.40;3.10;;;;;;;30.13;29.32;94787.81;4975712;28;20058;-73
2021/08/23 11:20:11;;;;;;;3.55;3.33;;;;;;;30.42;29.07;94789.41;4985878;28;20527;-77
2021/08/23 11:22:38;;;;;;;3.42;3.13;;;;;;;30.16;29.81;94781.84;4990679;28;20061;-75
2021/08/23 11:25:04;;;;;;;3.50;3.30;;;;;;;30.82;28.86;94781.28;4977233;28;20062;-74
2021/08/23 11:27:29;;;;;;;3.40;3.13;;;;;;;30.94;28.75;94775.41;4954201;28;20030;-74
2021/08/23 11:29:55;;;;;;;3.10;2.90;;;;;;;30.36;28.30;94772.66;4974668;28;20507;-74
2021/08/23 11:32:29;;;;;;;3.05;2.85;;;;;;;30.76;28.62;94771.78;4949133;28;20026;-74
2021/08/23 11:34:56;;;;;;;5.55;3.03;;;;;;;30.61;28.43;94771.34;4977319;28;20018;-76
2021/08/23 11:37:24;;;;;;;3.60;3.40;;;;;;;30.72;27.89;94784.22;4954342;28;20047;-75
2021/08/23 11:40:01;;;;;;;3.92;3.45;;;;;;;29.92;29.14;94765.25;4970268;28;20027;-74
2021/08/23 11:42:26;;;;;;;4.05;3.65;;;;;;;29.79;29.00;94766.00;4970375;28;20027;-75
2021/08/23 11:44:53;;;;;;;3.30;3.10;;;;;;;30.49;29.20;94763.03;4971692;28;20031;-74
2021/08/23 11:47:27;;;;;;;3.88;3.15;;;;;;;30.57;28.92;94763.13;4969716;28;20085;-76
2021/08/23 11:49:52;;;;;;;3.70;3.40;;;;;;;30.60;28.69;94759.84;4953591;28;20018;-78
2021/08/23 11:52:19;;;;;;;3.90;3.53;;;;;;;30.87;27.93;94763.53;4969032;28;20026;-77
2021/08/23 11:54:46;;;;;;;3.00;2.80;;;;;;;30.54;28.46;94752.22;4967875;28;20070;-76
2021/08/23 11:57:11;;;;;;;3.67;3.38;;;;;;;30.45;28.12;94760.19;4963193;28;20030;-75
2021/08/23 11:59:37;;;;;;;3.53;3.22;;;;;;;30.44;28.75;94755.91;4966966;28;20042;-76
2021/08/23 12:02:13;;;;;;;8.93;3.10;;;;;;;30.83;28.27;94752.66;4968682;28;20501;-76
2021/08/23 12:04:39;;;;;;;3.15;2.88;;;;;;;30.59;28.26;94752.94;4971351;28;20033;-74
2021/08/23 12:07:05;;;;;;;3.40;3.10;;;;;;;30.59;28.50;94746.78;4952517;28;20039;-76
2021/08/23 12:09:30;;;;;;;2.97;2.78;;;;;;;30.55;28.79;94741.25;4968989;28;20035;-75
2021/08/23 12:11:55;;;;;;;3.47;3.22;;;;;;;30.58;28.81;94737.16;4970099;28;20046;-74
2021/08/23 12:14:23;;;;;;;5.03;3.53;;;;;;;31.02;27.99;94739.16;4957699;28;20813;-78
2021/08/23 12:16:50;;;;;;;3.50;3.20;;;;;;;30.46;28.06;94737.69;4985323;28;20190;-75
2021/08/23 12:19:16;;;;;;;3.85;3.55;;;;;;;30.62;28.14;94735.47;4971959;28;20175;-74
2021/08/23 12:21:42;;;;;;;3.67;3.30;;;;;;;30.43;28.71;94721.47;4980948;28;20046;-74
2021/08/23 12:24:13;;;;;;;4.18;3.20;;;;;;;30.57;28.26;94732.91;4976373;28;20081;-75
2021/08/23 12:26:54;;;;;;;3.33;3.08;;;;;;;30.99;28.14;94729.03;4979702;28;20049;-77
2021/08/23 12:29:25;;;;;;;5.72;3.22;;;;;;;30.58;28.43;94724.59;4977494;28;20034;-76
2021/08/23 12:31:54;;;;;;;3.20;3.00;;;;;;;30.72;28.28;94724.56;4975880;28;20034;-76
2021/08/23 12:34:21;;;;;;;3.28;3.08;;;;;;;30.93;28.37;94727.53;4971489;28;20033;-75
2021/08/23 12:36:47;;;;;;;5.35;3.42;;;;;;;31.13;27.97;94735.13;4976817;28;20125;-76
2021/08/23 12:39:12;;;;;;;3.17;2.97;;;;;;;30.59;28.24;94712.81;4960661;28;20400;-78
2021/08/23 12:41:39;;;;;;;4.28;3.20;;;;;;;31.09;27.93;94718.06;4954011;28;20026;-76
2021/08/23 12:44:05;;;;;;;3.40;3.10;;;;;;;31.38;26.96;94714.94;4960344;28;20544;-75
2021/08/23 12:46:31;;;;;;;3.42;3.22;;;;;;;31.50;27.72;94707.19;4954504;28;20034;-75
2021/08/23 12:48:56;;;;;;;3.38;3.17;;;;;;;30.53;28.19;94714.00;4975902;28;20472;-75
2021/08/23 12:51:21;;;;;;;3.30;3.00;;;;;;;30.48;28.36;94722.13;4957552;28;20038;-74
2021/08/23 12:53:48;;;;;;;4.47;3.15;;;;;;;30.17;28.40;94727.31;4976164;28;20035;-74
2021/08/23 12:56:14;;;;;;;2.97;2.78;;;;;;;30.55;28.32;94714.50;4983963;28;20511;-76
2021/08/23 12:58:39;;;;;;;3.20;3.00;;;;;;;31.30;28.46;94716.50;4957432;28;20038;-75
2021/08/23 13:01:05;;;;;;;3.65;3.10;;;;;;;30.79;27.63;94708.88;4964634;28;20060;-75
2021/08/23 13:03:30;;;;;;;3.55;3.35;;;;;;;31.05;27.42;94712.53;4951034;28;20772;-76
2021/08/23 13:05:56;;;;;;;6.43;3.03;;;;;;;30.51;28.46;94700.13;4968584;28;20039;-77
2021/08/23 13:08:21;;;;;;;4.70;3.40;;;;;;;29.86;29.08;94699.63;4966152;28;20029;-78
2021/08/23 13:10:47;;;;;;;3.33;3.13;;;;;;;30.04;29.17;94698.72;4987458;28;20459;-79
2021/08/23 13:13:13;;;;;;;3.95;3.65;;;;;;;29.81;28.88;94700.47;4969063;28;20023;-74
2021/08/23 13:15:39;;;;;;;5.45;3.50;;;;;;;30.12;28.42;94705.22;4968221;28;20038;-76
2021/08/23 13:18:04;;;;;;;3.53;3.17;;;;;;;29.83;28.71;94692.19;4967384;28;20035;-74
2021/08/23 13:20:30;;;;;;;3.50;3.13;;;;;;;30.29;29.08;94695.50;4966811;28;20030;-77
2021/08/23 13:22:55;;;;;;;3.45;2.90;;;;;;;30.25;28.53;94689.16;4968460;28;20077;-77
2021/08/23 13:25:20;;;;;;;8.20;3.17;;;;;;;30.61;28.19;94691.09;4966282;28;20475;-79
2021/08/23 13:27:46;;;;;;;3.20;2.90;;;;;;;30.63;28.39;94692.38;4968397;28;20097;-80
2021/08/23 13:30:13;;;;;;;3.72;3.38;;;;;;;30.26;29.52;94684.63;4965730;28;20061;-77
2021/08/23 13:32:39;;;;;;;3.83;3.40;;;;;;;29.66;29.57;94684.75;4969575;28;20491;-77
2021/08/23 13:35:04;;;;;;;3.65;3.35;;;;;;;30.08;29.40;94694.38;4967373;28;20157;-74
2021/08/23 13:37:30;;;;;;;3.00;2.55;;;;;;;29.79;29.36;94686.63;4966811;28;20099;-77
2021/08/23 13:39:55;;;;;;;3.65;3.35;;;;;;;30.49;28.83;94683.59;4972450;28;20045;-75
2021/08/23 13:42:21;;;;;;;3.53;3.22;;;;;;;29.71;29.95;94691.88;4944267;28;20035;-73
2021/08/23 13:44:46;;;;;;;11.35;4.78;;;;;;;29.65;29.64;94693.06;4982842;28;20033;-71
2021/08/23 13:47:12;;;;;;;9.77;4.03;;;;;;;29.84;29.41;94685.75;4985795;28;20041;-71
2021/08/23 13:49:37;;;;;;;3.33;3.03;;;;;;;29.75;30.36;94679.50;4988941;28;20026;-78
2021/08/23 13:52:03;;;;;;;3.40;3.10;;;;;;;30.13;29.03;94672.88;4962427;28;20108;-76
2021/08/23 13:54:28;;;;;;;4.95;3.20;;;;;;;29.79;29.36;94678.63;4975795;28;20564;-72
2021/08/23 13:56:54;;;;;;;4.05;3.60;;;;;;;30.18;29.31;94671.97;4968205;28;20031;-75
2021/08/23 13:59:20;;;;;;;3.80;3.22;;;;;;;29.74;29.31;94661.88;4966089;28;20023;-72
2021/08/23 14:01:47;;;;;;;5.25;2.92;;;;;;;30.03;29.70;94673.06;4955797;28;20069;-77
2021/08/23 14:04:12;;;;;;;4.13;3.40;;;;;;;29.89;29.98;94669.66;4978484;28;20421;-74
2021/08/23 14:06:38;;;;;;;4.32;3.92;;;;;;;29.99;28.92;94665.97;4980311;28;20031;-76
2021/08/23 14:09:03;;;;;;;5.35;3.38;;;;;;;29.75;30.10;94676.84;4967910;28;20022;-76
2021/08/23 14:11:29;;;;;;;3.10;2.90;;;;;;;30.02;29.30;94671.47;4986355;28;20027;-75
2021/08/23 14:13:57;;;;;;;3.40;3.20;;;;;;;29.63;29.38;94658.66;4979601;28;20121;-78
2021/08/23 14:16:22;;;;;;;3.38;3.08;;;;;;;29.67;29.42;94667.63;4976699;28;20088;-73
2021/08/23 14:18:48;;;;;;;3.78;3.40;;;;;;;29.95;29.51;94664.97;4959127;28;20034;-79
2021/08/23 14:21:14;;;;;;;4.00;3.70;;;;;;;29.74;29.60;94661.88;4972084;28;20022;-79
2021/08/23 14:23:39;;;;;;;3.30;3.10;;;;;;;29.99;29.02;94660.63;4968623;28;20038;-75
2021/08/23 14:26:05;;;;;;;4.15;3.10;;;;;;;29.70;29.95;94659.00;4965252;28;20054;-74
2021/08/23 14:28:30;;;;;;;3.20;2.90;;;;;;;29.77;29.50;94662.09;4966293;28;20035;-79
2021/08/23 14:30:56;;;;;;;19.73;3.83;;;;;;;29.44;29.62;94665.16;4965609;28;20109;-76
2021/08/23 14:33:21;;;;;;;4.55;3.20;;;;;;;29.69;29.25;94660.13;4982268;28;20077;-77
2021/08/23 14:35:47;;;;;;;3.67;3.40;;;;;;;29.15;30.20;94662.72;4964169;28;20031;-73
2021/08/23 14:38:12;;;;;;;3.35;3.05;;;;;;;29.34;30.27;94662.66;4974404;28;20109;-75
2021/08/23 14:40:37;;;;;;;3.78;3.55;;;;;;;29.34;30.48;94665.34;4976142;28;20031;-72
2021/08/23 14:43:06;;;;;;;3.47;3.28;;;;;;;29.69;29.91;94662.78;4950444;28;20109;-77
2021/08/23 14:45:31;;;;;;;3.35;3.05;;;;;;;29.63;29.51;94663.97;4960225;28;20056;-81
2021/08/23 14:47:56;;;;;;;5.32;3.33;;;;;;;29.11;29.94;94667.06;4965098;28;20075;-78
2021/08/23 14:50:22;;;;;;;4.25;3.40;;;;;;;29.47;29.66;94670.69;4967208;28;20192;-78
2021/08/23 14:52:48;;;;;;;3.88;3.55;;;;;;;29.27;30.24;94657.72;4965089;28;20512;-79
2021/08/23 14:55:13;;;;;;;3.97;2.92;;;;;;;29.38;30.27;94664.44;4974662;28;20054;-80
2021/08/23 14:57:39;;;;;;;4.00;3.70;;;;;;;28.93;30.18;94658.00;4956156;28;20535;-75
2021/08/23 15:00:05;;;;;;;3.90;3.55;;;;;;;29.39;30.15;94658.03;4965950;28;20042;-72
2021/08/23 15:02:31;;;;;;;4.82;3.70;;;;;;;29.00;30.11;94657.63;4975101;28;20093;-77
2021/08/23 15:04:56;;;;;;;3.97;3.67;;;;;;;29.14;30.29;94659.25;4959128;28;20034;-76
2021/08/23 15:07:22;;;;;;;7.20;4.10;;;;;;;28.90;29.81;94652.47;4972646;28;20468;-71
2021/08/23 15:09:48;;;;;;;3.47;3.17;;;;;;;28.87;29.96;94648.50;4971390;28;20035;-75
2021/08/23 15:12:13;;;;;;;3.85;3.25;;;;;;;28.95;29.78;94650.50;4968135;28;20038;-75
2021/08/23 15:14:38;;;;;;;3.55;3.35;;;;;;;29.02;29.69;94653.59;4970957;28;20042;-76
2021/08/23 15:17:05;;;;;;;3.75;3.45;;;;;;;28.98;30.17;94641.91;4967073;28;20038;-76
2021/08/23 15:19:30;;;;;;;4.80;3.47;;;;;;;29.02;29.89;94648.25;4961628;28;20459;-77
2021/08/23 15:21:55;;;;;;;3.22;3.03;;;;;;;29.00;30.11;94646.94;4971513;28;20027;-76
2021/08/23 15:24:21;;;;;;;3.20;3.00;;;;;;;28.99;29.96;94648.06;4978685;28;20027;-76
2021/08/23 15:26:47;;;;;;;4.35;3.55;;;;;;;28.71;30.63;94644.50;4984073;28;20037;-69
2021/08/23 15:29:13;;;;;;;3.50;3.30;;;;;;;28.75;30.46;94640.16;4974162;28;20493;-76
2021/08/23 15:31:38;;;;;;;4.20;3.80;;;;;;;28.61;30.52;94649.97;4948715;28;20648;-77
2021/08/23 15:34:03;;;;;;;2.97;2.78;;;;;;;28.48;30.50;94646.16;4966996;28;20026;-77
2021/08/23 15:36:29;;;;;;;6.57;2.90;;;;;;;28.67;30.61;94640.84;4970406;28;20089;-77
2021/08/23 15:38:55;;;;;;;3.33;3.08;;;;;;;28.55;31.22;94637.78;4967807;28;20091;-77
2021/08/23 15:41:21;;;;;;;3.90;2.67;;;;;;;28.32;30.75;94642.13;4969139;28;20027;-74
2021/08/23 15:43:46;;;;;;;4.32;3.63;;;;;;;28.34;30.59;94637.31;4950349;28;20090;-78
2021/08/23 15:46:12;;;;;;;6.50;3.47;;;;;;;28.25;31.32;94644.38;4968838;28;20055;-75
2021/08/23 15:48:40;;;;;;;3.33;3.00;;;;;;;28.19;31.14;94640.97;4968195;28;20041;-73
2021/08/23 15:51:06;;;;;;;3.08;2.88;;;;;;;28.18;31.42;94646.63;4969297;28;20456;-75
2021/08/23 15:53:32;;;;;;;3.85;3.53;;;;;;;28.18;31.52;94649.28;4971048;28;20115;-77
2021/08/23 15:55:57;;;;;;;3.60;3.40;;;;;;;27.98;31.64;94652.19;4970052;28;20046;-77
2021/08/23 15:58:23;;;;;;;4.45;3.50;;;;;;;27.85;31.09;94647.56;4971618;28;20077;-76
2021/08/23 16:00:48;;;;;;;5.22;3.40;;;;;;;27.83;31.95;94655.03;4969797;28;20055;-73
2021/08/23 16:03:15;;;;;;;3.20;2.90;;;;;;;27.72;31.39;94654.38;4954662;28;20031;-75
2021/08/23 16:05:41;;;;;;;3.72;3.42;;;;;;;27.58;31.54;94650.81;4969025;28;20472;-74
2021/08/23 16:08:07;;;;;;;4.28;3.50;;;;;;;27.50;31.76;94648.78;4954542;28;20023;-73
2021/08/23 16:10:32;;;;;;;3.40;3.10;;;;;;;27.40;31.47;94649.66;4969253;28;20019;-71
2021/08/23 16:12:58;;;;;;;4.38;3.42;;;;;;;27.35;32.06;94654.25;4953825;28;20055;-76
2021/08/23 16:15:23;;;;;;;3.17;2.97;;;;;;;27.28;32.28;94649.25;4970420;28;20440;-74
2021/08/23 16:17:49;;;;;;;4.13;3.65;;;;;;;27.19;32.25;94649.09;4969156;28;20022;-75
2021/08/23 16:20:14;;;;;;;5.10;3.78;;;;;;;27.15;32.50;94652.56;4946627;28;20037;-70
2021/08/23 16:22:40;;;;;;;6.22;3.70;;;;;;;27.04;32.93;94643.09;4987758;28;20034;-75
2021/08/23 16:25:09;;;;;;;3.30;3.00;;;;;;;26.97;33.38;94661.28;4973289;28;20053;-70
2021/08/23 16:27:35;;;;;;;3.35;3.15;;;;;;;26.91;32.97;94657.84;4989160;28;20499;-75
2021/08/23 16:30:00;;;;;;;5.45;3.60;;;;;;;26.82;33.77;94658.72;4988741;28;20038;-73
2021/08/23 16:32:26;;;;;;;3.53;3.30;;;;;;;26.67;33.78;94657.78;4970811;28;20091;-75